Cimbria — V2CC7 — position and weather

sailwx.info

Track history (hours):
 
Tides and Currents Weather Stations Pressure Air Temp Water Temp Dewpoint Dewpoint Depression Visibility Wind Speed Wind Dir Waves Ship Positions

Cimbria

Last reported at 2014-Sep-19 22:33 UTC. Time now 2014-Sep-19 23:59 UTC.
Position N 38°41' E 002°38'.

Length 109 m; draft 4.1 m.

Type: Cargo ship. MMSI: 304981000.

Date/timePositionNaut miles runAvg speedWind from/ knotsBaromVisibWave heightAir tempDewpointWater temp
2014-Sep-19 22:33N 38°41' E 002°38'1211.7
2014-Sep-19 21:33N 38°47' E 002°51'1211.8
2014-Sep-19 20:33N 38°53' E 003°04'1111.5
2014-Sep-19 19:33N 38°59' E 003°17'1211.2
2014-Sep-19 18:27N 39°05' E 003°30'1011.0
2014-Sep-19 17:33N 39°10' E 003°41'1110.8
2014-Sep-19 16:33N 39°16' E 003°53'1110.5
2014-Sep-19 15:29N 39°23' E 004°05'2512.0
2014-Sep-19 13:25N 39°40' E 004°28'8 8.0
2014-Sep-19 12:28N 39°45' E 004°35'1313.2
2014-Sep-19 11:30N 39°54' E 004°47'288 9.5
2014-Sep-18 05:11N 43°08' E 009°31'4 6.1
2014-Sep-18 04:31N 43°09' E 009°37'6 6.5
2014-Sep-18 03:33N 43°09' E 009°45'7 6.8
2014-Sep-18 02:33N 43°09' E 009°54'7 6.9
2014-Sep-18 01:33N 43°05' E 010°03'7 6.7
2014-Sep-18 00:33N 43°02' E 010°10'7 6.6
2014-Sep-17 23:33N 42°59' E 010°18'7 6.8
2014-Sep-17 22:33N 42°55' E 010°26'7 6.7
2014-Sep-17 21:33N 42°53' E 010°35'1 0.3
2014-Sep-17 18:11N 42°54' E 010°36'0 0.0
2014-Sep-17 04:14N 42°54' E 010°36'0 0.1
2014-Sep-17 03:32N 42°54' E 010°36'0 0.0
2014-Sep-16 14:26N 42°54' E 010°36'0 0.0
2014-Sep-16 13:29N 42°54' E 010°36'0 0.0
2014-Sep-16 11:23N 42°54' E 010°36'0 0.0
2014-Sep-16 02:26N 42°54' E 010°36'0 0.0
2014-Sep-16 01:29N 42°54' E 010°36'0 0.0
2014-Sep-15 23:08N 42°54' E 010°36'0 0.0
2014-Sep-14 19:29N 42°54' E 010°36'0 0.0
2014-Sep-14 18:32N 42°54' E 010°36'0 0.0
2014-Sep-14 17:05N 42°54' E 010°36'0 0.1
2014-Sep-14 16:26N 42°54' E 010°36'0 0.0
2014-Sep-14 15:32N 42°54' E 010°36'0 0.0
2014-Sep-14 14:23N 42°54' E 010°36'0 0.0
2014-Sep-14 13:05N 42°54' E 010°36'0 0.0
2014-Sep-14 11:32N 42°54' E 010°36'0 0.0
2014-Sep-14 10:11N 42°54' E 010°36'0 0.0
2014-Sep-14 08:08N 42°54' E 010°36'0 0.0
2014-Sep-14 06:05N 42°54' E 010°36'0 0.0
2014-Sep-14 05:32N 42°54' E 010°36'0 0.0
2014-Sep-14 03:29N 42°54' E 010°36'0 0.1
2014-Sep-14 02:29N 42°54' E 010°36'0 0.0
2014-Sep-14 01:20N 42°54' E 010°36'0 0.0
2014-Sep-13 21:32N 42°54' E 010°36'20 0.4
2014-Sep-11 19:22N 43°02' E 010°11'9 9.2
2014-Sep-11 18:25N 43°06' E 010°01'8 8.5
2014-Sep-11 17:29N 43°10' E 009°52'7 8.0
2014-Sep-11 16:33N 43°10' E 009°42'9 8.0
2014-Sep-11 15:30N 43°08' E 009°30'8 8.5
2014-Sep-11 14:33N 43°07' E 009°19'100 8.3
2014-Sep-11 02:28N 42°54' E 007°04'8 9.0
2014-Sep-11 01:33N 42°53' E 006°52'10 8.4
2014-Sep-11 00:19N 42°51' E 006°38'6 8.1
2014-Sep-10 23:33N 42°50' E 006°30'8 8.2
2014-Sep-10 22:33N 42°49' E 006°19'9 8.7
2014-Sep-10 21:32N 42°48' E 006°07'9 9.0
2014-Sep-10 20:32N 42°47' E 005°55'9 9.0
2014-Sep-10 19:33N 42°46' E 005°43'8 8.1
2014-Sep-10 18:31N 42°48' E 005°32'9 9.8
2014-Sep-10 17:33N 42°54' E 005°23'1010.1
2014-Sep-10 16:33N 43°02' E 005°14'1010.2
2014-Sep-10 15:33N 43°10' E 005°04'10 9.7
2014-Sep-10 14:33N 43°18' E 004°59'8 7.9
2014-Sep-10 13:33N 43°25' E 004°53'0 0.5
2014-Sep-10 12:31N 43°26' E 004°53'0 0.0
2014-Sep-10 11:31N 43°26' E 004°53'0 0.0
2014-Sep-10 10:31N 43°26' E 004°53'0 0.0
2014-Sep-10 09:31N 43°26' E 004°53'0 0.0
2014-Sep-10 08:25N 43°26' E 004°53'0 0.0
2014-Sep-10 07:31N 43°26' E 004°53'0 0.0
2014-Sep-10 06:31N 43°26' E 004°53'0 0.0
2014-Sep-10 05:31N 43°26' E 004°53'0 0.0
2014-Sep-10 04:31N 43°26' E 004°53'0 0.0
2014-Sep-10 03:25N 43°26' E 004°53'0 0.0
2014-Sep-10 02:31N 43°26' E 004°53'0 0.0
2014-Sep-10 01:31N 43°26' E 004°53'0 0.0
2014-Sep-10 00:28N 43°26' E 004°53'0 0.0
2014-Sep-09 23:31N 43°26' E 004°53'  
Track history (hours):
 
Tides and Currents Weather Stations Pressure Air Temp Water Temp Dewpoint Dewpoint Depression Visibility Wind Speed Wind Dir Waves Ship Positions

Cimbria

Last reported at 2014-Sep-19 22:33 UTC. Time now 2014-Sep-19 23:59 UTC.
Position N 38°41' E 002°38'.

Length 109 m; draft 4.1 m.

Type: Cargo ship. MMSI: 304981000.

Date/timePositionNaut miles runAvg speedWind from/ knotsBaromVisibWave heightAir tempDewpointWater temp
2014-Sep-19 22:33N 38°41' E 002°38'1211.7
2014-Sep-19 21:33N 38°47' E 002°51'1211.8
2014-Sep-19 20:33N 38°53' E 003°04'1111.5
2014-Sep-19 19:33N 38°59' E 003°17'1211.2
2014-Sep-19 18:27N 39°05' E 003°30'1011.0
2014-Sep-19 17:33N 39°10' E 003°41'1110.8
2014-Sep-19 16:33N 39°16' E 003°53'1110.5
2014-Sep-19 15:29N 39°23' E 004°05'2512.0
2014-Sep-19 13:25N 39°40' E 004°28'8 8.0
2014-Sep-19 12:28N 39°45' E 004°35'1313.2
2014-Sep-19 11:30N 39°54' E 004°47'288 9.5
2014-Sep-18 05:11N 43°08' E 009°31'4 6.1
2014-Sep-18 04:31N 43°09' E 009°37'6 6.5
2014-Sep-18 03:33N 43°09' E 009°45'7 6.8
2014-Sep-18 02:33N 43°09' E 009°54'7 6.9
2014-Sep-18 01:33N 43°05' E 010°03'7 6.7
2014-Sep-18 00:33N 43°02' E 010°10'7 6.6
2014-Sep-17 23:33N 42°59' E 010°18'7 6.8
2014-Sep-17 22:33N 42°55' E 010°26'7 6.7
2014-Sep-17 21:33N 42°53' E 010°35'1 0.3
2014-Sep-17 18:11N 42°54' E 010°36'0 0.0
2014-Sep-17 04:14N 42°54' E 010°36'0 0.1
2014-Sep-17 03:32N 42°54' E 010°36'0 0.0
2014-Sep-16 14:26N 42°54' E 010°36'0 0.0
2014-Sep-16 13:29N 42°54' E 010°36'0 0.0
2014-Sep-16 11:23N 42°54' E 010°36'0 0.0
2014-Sep-16 02:26N 42°54' E 010°36'0 0.0
2014-Sep-16 01:29N 42°54' E 010°36'0 0.0
2014-Sep-15 23:08N 42°54' E 010°36'0 0.0
2014-Sep-14 19:29N 42°54' E 010°36'0 0.0
2014-Sep-14 18:32N 42°54' E 010°36'0 0.0
2014-Sep-14 17:05N 42°54' E 010°36'0 0.1
2014-Sep-14 16:26N 42°54' E 010°36'0 0.0
2014-Sep-14 15:32N 42°54' E 010°36'0 0.0
2014-Sep-14 14:23N 42°54' E 010°36'0 0.0
2014-Sep-14 13:05N 42°54' E 010°36'0 0.0
2014-Sep-14 11:32N 42°54' E 010°36'0 0.0
2014-Sep-14 10:11N 42°54' E 010°36'0 0.0
2014-Sep-14 08:08N 42°54' E 010°36'0 0.0
2014-Sep-14 06:05N 42°54' E 010°36'0 0.0
2014-Sep-14 05:32N 42°54' E 010°36'0 0.0
2014-Sep-14 03:29N 42°54' E 010°36'0 0.1
2014-Sep-14 02:29N 42°54' E 010°36'0 0.0
2014-Sep-14 01:20N 42°54' E 010°36'0 0.0
2014-Sep-13 21:32N 42°54' E 010°36'20 0.4
2014-Sep-11 19:22N 43°02' E 010°11'9 9.2
2014-Sep-11 18:25N 43°06' E 010°01'8 8.5
2014-Sep-11 17:29N 43°10' E 009°52'7 8.0
2014-Sep-11 16:33N 43°10' E 009°42'9 8.0
2014-Sep-11 15:30N 43°08' E 009°30'8 8.5
2014-Sep-11 14:33N 43°07' E 009°19'100 8.3
2014-Sep-11 02:28N 42°54' E 007°04'8 9.0
2014-Sep-11 01:33N 42°53' E 006°52'10 8.4
2014-Sep-11 00:19N 42°51' E 006°38'6 8.1
2014-Sep-10 23:33N 42°50' E 006°30'8 8.2
2014-Sep-10 22:33N 42°49' E 006°19'9 8.7
2014-Sep-10 21:32N 42°48' E 006°07'9 9.0
2014-Sep-10 20:32N 42°47' E 005°55'9 9.0
2014-Sep-10 19:33N 42°46' E 005°43'8 8.1
2014-Sep-10 18:31N 42°48' E 005°32'9 9.8
2014-Sep-10 17:33N 42°54' E 005°23'1010.1
2014-Sep-10 16:33N 43°02' E 005°14'1010.2
2014-Sep-10 15:33N 43°10' E 005°04'10 9.7
2014-Sep-10 14:33N 43°18' E 004°59'8 7.9
2014-Sep-10 13:33N 43°25' E 004°53'0 0.5
2014-Sep-10 12:31N 43°26' E 004°53'0 0.0
2014-Sep-10 11:31N 43°26' E 004°53'0 0.0
2014-Sep-10 10:31N 43°26' E 004°53'0 0.0
2014-Sep-10 09:31N 43°26' E 004°53'0 0.0
2014-Sep-10 08:25N 43°26' E 004°53'0 0.0
2014-Sep-10 07:31N 43°26' E 004°53'0 0.0
2014-Sep-10 06:31N 43°26' E 004°53'0 0.0
2014-Sep-10 05:31N 43°26' E 004°53'0 0.0
2014-Sep-10 04:31N 43°26' E 004°53'0 0.0
2014-Sep-10 03:25N 43°26' E 004°53'0 0.0
2014-Sep-10 02:31N 43°26' E 004°53'0 0.0
2014-Sep-10 01:31N 43°26' E 004°53'0 0.0
2014-Sep-10 00:28N 43°26' E 004°53'0 0.0
2014-Sep-09 23:31N 43°26' E 004°53'  

Dump ship's entire track history